»·PEaware :: N583SC KCNO-KSEE

N583SC :: KCNO-KSEE

FLIGHT INFORMATION

Flight Status: Arrived
Operator: Privately registered:
United States
More flights under this callsign
Pilot: Scott G. (88)
Aircraft: CESSNA 172 SKYHAWK
(C172)
More flights by this aircraft type
Origin: KCNO Chino
United States
Destination: KSEE Gillespie
United States
More flights between these airports :: More routes between these airports
Route: +PDZ TANNR JLI DCT
File this flight plan on PilotEdge
Remarks:
Altitude:
(Current/Filed)
7,500ft
Speed:
(Current/Filed)
110kts
Departed: 01-Nov-18 07:48 AM
Arrived: 01-Nov-18 08:40 AM
Distance/Time
Traveled:
77nm/0:52
Distance/Time
To Go:
Arrived

Flight Plot

Page will automatically refresh every two minutes.

Flight plan parsing failed; only flown route is shown


Map Options




Map Legend


Flown Route
Filed Route
Departure Airport
Arrival Airport
Navaid (VOR, NDB)
Fix

Horizontal Profiles

Position Reports

Time Latitude Longitude Heading Altitude Ground
Speed
01-Nov-18 07:28 33.977291 -117.636508 122 653ft 0kts
01-Nov-18 07:29 33.977291 -117.636508 122 653ft 0kts
01-Nov-18 07:30 33.977291 -117.636508 122 653ft 0kts
01-Nov-18 07:31 33.977291 -117.636508 122 653ft 0kts
01-Nov-18 07:32 33.977291 -117.636508 122 653ft 0kts
01-Nov-18 07:33 33.977291 -117.636508 122 653ft 0kts
01-Nov-18 07:34 33.977291 -117.636508 122 653ft 0kts
01-Nov-18 07:35 33.977291 -117.636508 122 653ft 0kts
01-Nov-18 07:36 33.977291 -117.636508 122 653ft 0kts
01-Nov-18 07:37 33.977291 -117.636508 122 653ft 0kts
01-Nov-18 07:38 33.977291 -117.636508 122 653ft 0kts
01-Nov-18 07:39 33.977291 -117.636508 122 653ft 0kts
01-Nov-18 07:40 33.977291 -117.636508 122 653ft 0kts
01-Nov-18 07:41 33.977291 -117.636508 122 653ft 0kts
01-Nov-18 07:42 33.977291 -117.636508 122 653ft 0kts
01-Nov-18 07:43 33.977291 -117.636508 122 653ft 0kts
01-Nov-18 07:44 33.977291 -117.636508 122 653ft 0kts
01-Nov-18 07:45 33.977291 -117.636508 122 653ft 0kts
01-Nov-18 07:46 33.976945 -117.631841 88 653ft 22kts
01-Nov-18 07:47 33.976614 -117.630822 178 653ft 0kts
01-Nov-18 07:48 33.976614 -117.630822 178 653ft 0kts
01-Nov-18 07:49 33.975823 -117.632560 268 653ft 35kts
01-Nov-18 07:50 33.975016 -117.654064 243 1372ft 66kts
01-Nov-18 07:52 33.966923 -117.641314 94 2131ft 72kts
01-Nov-18 07:53 33.963840 -117.615751 116 2753ft 89kts
01-Nov-18 07:54 33.950716 -117.590546 123 3317ft 101kts
01-Nov-18 07:55 33.930629 -117.555762 124 2663ft 137kts
01-Nov-18 07:56 33.908183 -117.525656 142 2655ft 121kts
01-Nov-18 07:57 33.881305 -117.501996 143 2981ft 119kts
01-Nov-18 07:58 33.853997 -117.478817 144 3583ft 120kts
01-Nov-18 07:59 33.827406 -117.456460 143 4322ft 109kts
01-Nov-18 08:00 33.804894 -117.437524 143 5107ft 89kts
01-Nov-18 08:01 33.784512 -117.420322 143 5536ft 109kts
01-Nov-18 08:02 33.756593 -117.397084 144 5533ft 123kts
01-Nov-18 08:03 33.729007 -117.374065 143 5531ft 120kts
01-Nov-18 08:04 33.701191 -117.350783 143 5529ft 124kts
01-Nov-18 08:05 33.672503 -117.326791 143 5527ft 126kts
01-Nov-18 08:06 33.643914 -117.302920 143 5525ft 124kts
01-Nov-18 08:07 33.615680 -117.279361 143 5524ft 124kts
01-Nov-18 08:08 33.587615 -117.255965 142 5536ft 122kts
01-Nov-18 08:09 33.559387 -117.232451 142 5491ft 122kts
01-Nov-18 08:10 33.531564 -117.209280 142 5491ft 121kts
01-Nov-18 08:11 33.503895 -117.186258 143 5489ft 121kts
01-Nov-18 08:12 33.477059 -117.162257 127 5486ft 118kts
01-Nov-18 08:13 33.456660 -117.132398 129 5539ft 116kts
01-Nov-18 08:14 33.436388 -117.102053 124 5536ft 117kts
01-Nov-18 08:15 33.417251 -117.070286 122 5535ft 117kts
01-Nov-18 08:16 33.398832 -117.037793 126 5535ft 118kts
01-Nov-18 08:17 33.375737 -117.008859 131 5536ft 120kts
01-Nov-18 08:18 33.352294 -116.980034 131 5537ft 121kts
01-Nov-18 08:19 33.330800 -116.948892 120 5538ft 121kts
01-Nov-18 08:20 33.311433 -116.915898 120 5541ft 121kts
01-Nov-18 08:21 33.293421 -116.881213 118 5544ft 122kts
01-Nov-18 08:22 33.277647 -116.850379 119 5545ft 122kts
01-Nov-18 08:23 33.259371 -116.815624 119 5545ft 123kts
01-Nov-18 08:24 33.239732 -116.782088 131 5545ft 124kts
01-Nov-18 08:25 33.216095 -116.751538 130 5498ft 127kts
01-Nov-18 08:26 33.192427 -116.720724 130 5490ft 125kts
01-Nov-18 08:27 33.168991 -116.690151 130 5490ft 124kts
01-Nov-18 08:28 33.143606 -116.661785 140 5490ft 125kts
01-Nov-18 08:29 33.109196 -116.651340 170 5315ft 133kts
01-Nov-18 08:30 33.078438 -116.665047 231 5141ft 125kts
01-Nov-18 08:31 33.053070 -116.693050 223 5142ft 123kts
01-Nov-18 08:32 33.024834 -116.715636 206 5142ft 123kts
01-Nov-18 08:33 32.993992 -116.733389 216 5141ft 122kts
01-Nov-18 08:34 32.968285 -116.758831 211 5142ft 121kts
01-Nov-18 08:35 32.938079 -116.779672 211 4910ft 131kts
01-Nov-18 08:36 32.906287 -116.801825 211 4167ft 132kts
01-Nov-18 08:37 32.879149 -116.828801 240 2825ft 129kts
01-Nov-18 08:38 32.859857 -116.861200 230 2169ft 105kts
01-Nov-18 08:39 32.842903 -116.888775 234 1852ft 102kts
01-Nov-18 08:40 32.825736 -116.915511 232 1747ft 104kts
01-Nov-18 08:41 32.822664 -116.945860 284 1123ft 87kts
01-Nov-18 08:42 32.827248 -116.968949 282 392ft 48kts
01-Nov-18 08:43 32.826896 -116.971820 174 392ft 9kts
01-Nov-18 08:44 32.824923 -116.971802 178 392ft 5kts
01-Nov-18 08:45 32.824611 -116.970422 1 392ft 0kts
01-Nov-18 08:46 32.824659 -116.970398 353 392ft 0kts
01-Nov-18 08:47 32.824659 -116.970398 353 392ft 0kts

Navigation Log

Ident Type
Flight plan parsing failed, navigation log unavailable